createdAt,value
2017-05-17T00:01:24.064Z,12.22
2017-05-17T00:03:54.730Z,13.64
2017-05-17T00:06:24.606Z,5.24
2017-05-17T00:08:54.522Z,6.86
2017-05-17T00:11:25.143Z,6.70
2017-05-17T00:13:55.060Z,5.80
2017-05-17T00:16:24.939Z,5.84
2017-05-17T00:18:54.807Z,6.40
2017-05-17T00:21:25.535Z,7.10
2017-05-17T00:23:56.169Z,6.46
2017-05-17T00:26:26.864Z,6.56
2017-05-17T00:28:56.740Z,11.48
2017-05-17T00:31:26.616Z,9.68
2017-05-17T00:33:57.273Z,6.04
2017-05-17T00:36:45.106Z,6.96
2017-05-17T00:39:38.889Z,7.12
2017-05-17T00:45:42.427Z,7.32
2017-05-17T00:51:44.304Z,7.50
2017-05-17T00:54:20.012Z,12.44
2017-05-17T00:56:50.674Z,6.22
2017-05-17T00:59:20.546Z,7.02
2017-05-17T01:01:53.784Z,6.96
2017-05-17T01:04:23.666Z,6.86
2017-05-17T01:06:54.331Z,5.82
2017-05-17T01:09:24.211Z,6.26
2017-05-17T01:12:21.541Z,6.66
2017-05-17T01:14:51.429Z,6.94
2017-05-17T01:17:21.360Z,7.00
2017-05-17T01:19:54.191Z,6.62
2017-05-17T01:22:24.432Z,7.16
2017-05-17T01:24:54.319Z,6.32
2017-05-17T01:27:24.969Z,7.26
2017-05-17T01:29:54.842Z,6.74
2017-05-17T01:32:25.499Z,6.98
2017-05-17T01:34:55.364Z,7.04
2017-05-17T01:37:25.294Z,5.90
2017-05-17T01:39:55.169Z,7.50
2017-05-17T01:42:25.058Z,6.74
2017-05-17T01:44:54.966Z,5.88
2017-05-17T01:47:24.839Z,6.88
2017-05-17T01:49:54.710Z,6.70
2017-05-17T01:52:24.616Z,6.72
2017-05-17T01:54:54.493Z,6.90
2017-05-17T01:57:24.376Z,7.00
2017-05-17T01:59:54.289Z,7.08
2017-05-17T02:02:24.161Z,6.76
2017-05-17T02:04:54.064Z,7.20
2017-05-17T02:07:24.677Z,7.34
2017-05-17T02:09:54.590Z,8.18
2017-05-17T02:12:24.466Z,7.26
2017-05-17T02:14:54.342Z,6.88
2017-05-17T02:17:24.255Z,7.64
2017-05-17T02:19:54.144Z,6.50
2017-05-17T02:22:25.112Z,6.26
2017-05-17T02:24:54.987Z,7.22
2017-05-17T02:27:24.902Z,7.08
2017-05-17T02:29:54.792Z,6.40
2017-05-17T02:32:24.707Z,7.40
2017-05-17T02:34:54.577Z,7.42
2017-05-17T02:37:24.449Z,7.62
2017-05-17T02:39:54.362Z,7.30
2017-05-17T02:42:24.244Z,6.40
2017-05-17T02:44:54.161Z,7.04
2017-05-17T02:47:24.033Z,7.62
2017-05-17T02:49:54.690Z,6.90
2017-05-17T02:52:24.576Z,6.44
2017-05-17T02:54:55.246Z,7.40
2017-05-17T02:57:25.131Z,7.30
2017-05-17T02:59:55.045Z,6.60
2017-05-17T03:02:24.923Z,7.12
2017-05-17T03:04:54.798Z,7.20
2017-05-17T03:07:24.715Z,7.36
2017-05-17T03:09:54.601Z,6.74
2017-05-17T03:12:24.513Z,6.32
2017-05-17T03:14:54.407Z,6.58
2017-05-17T03:17:52.618Z,6.66
2017-05-17T03:20:22.494Z,7.22
2017-05-17T03:22:52.408Z,6.58
2017-05-17T03:25:22.285Z,7.32
2017-05-17T03:27:52.202Z,6.58
2017-05-17T03:30:22.079Z,6.66
2017-05-17T03:32:52.015Z,6.64
2017-05-17T03:35:21.885Z,6.54
2017-05-17T03:37:52.555Z,6.04
2017-05-17T03:40:22.430Z,6.68
2017-05-17T03:42:53.092Z,8.38
2017-05-17T03:45:53.416Z,6.84
2017-05-17T03:48:23.353Z,6.48
2017-05-17T03:50:53.225Z,7.26
2017-05-17T03:53:23.894Z,6.64
2017-05-17T03:55:53.769Z,6.44
2017-05-17T03:58:24.418Z,7.42
2017-05-17T04:00:54.298Z,7.26
2017-05-17T04:03:24.955Z,6.94
2017-05-17T04:05:54.826Z,6.10
2017-05-17T04:08:24.737Z,7.16
2017-05-17T04:10:54.600Z,6.38
2017-05-17T04:13:53.098Z,6.50
2017-05-17T04:16:22.971Z,7.66
2017-05-17T04:18:53.642Z,7.22
2017-05-17T04:21:23.523Z,7.38
2017-05-17T04:23:54.291Z,7.52
2017-05-17T04:26:24.180Z,8.02
2017-05-17T04:28:54.089Z,7.42
2017-05-17T04:31:24.703Z,6.88
2017-05-17T04:33:55.368Z,7.28
2017-05-17T04:36:25.246Z,7.52
2017-05-17T04:38:55.918Z,7.92
2017-05-17T04:41:52.937Z,7.52
2017-05-17T04:44:23.603Z,8.06
2017-05-17T04:46:53.477Z,8.50
2017-05-17T04:49:24.175Z,8.08
2017-05-17T04:51:54.064Z,8.58
2017-05-17T04:54:23.985Z,6.88
2017-05-17T04:56:53.864Z,7.70
2017-05-17T04:59:23.787Z,7.32
2017-05-17T05:01:53.671Z,17.00
2017-05-17T05:04:24.356Z,7.84
2017-05-17T05:06:54.253Z,7.06
2017-05-17T05:09:52.209Z,6.80
2017-05-17T05:12:22.085Z,7.16
2017-05-17T05:14:52.006Z,7.30
2017-05-17T05:20:24.371Z,7.36
2017-05-17T05:22:54.266Z,8.22
2017-05-17T05:25:24.194Z,8.38
2017-05-17T05:27:54.086Z,8.72
2017-05-17T05:30:24.022Z,8.06
2017-05-17T05:32:53.899Z,9.02
2017-05-17T05:35:23.845Z,8.96
2017-05-17T05:37:54.434Z,13.26
2017-05-17T05:40:24.356Z,10.88
2017-05-17T05:42:54.297Z,10.44
2017-05-17T05:45:24.202Z,15.46
2017-05-17T05:47:54.127Z,8.78
2017-05-17T05:50:24.004Z,9.82
2017-05-17T05:52:54.667Z,12.28
2017-05-17T05:55:24.642Z,12.50
2017-05-17T06:01:28.806Z,16.44
2017-05-17T06:03:58.723Z,13.96
2017-05-17T06:06:54.883Z,14.90
2017-05-17T06:09:24.772Z,11.06
2017-05-17T06:14:56.626Z,15.42
2017-05-17T06:17:26.556Z,12.02
2017-05-17T06:19:56.434Z,13.60
2017-05-17T06:22:27.120Z,15.96
2017-05-17T06:24:57.012Z,13.48
2017-05-17T06:27:26.975Z,15.52
2017-05-17T06:29:56.863Z,13.40
2017-05-17T06:32:26.800Z,13.56
2017-05-17T06:34:56.716Z,14.40
2017-05-17T06:37:26.590Z,13.48
2017-05-17T06:39:56.538Z,17.80
2017-05-17T06:42:26.419Z,14.76
2017-05-17T06:44:56.337Z,13.64
2017-05-17T06:47:52.728Z,17.36
2017-05-17T06:50:23.346Z,11.86
2017-05-17T06:52:53.545Z,18.64
2017-05-17T06:55:23.425Z,13.80
2017-05-17T06:57:53.357Z,16.02
2017-05-17T07:00:23.246Z,17.40
2017-05-17T07:02:54.119Z,15.38
2017-05-17T07:05:24.041Z,19.56
2017-05-17T07:07:54.816Z,11.10
2017-05-17T07:10:24.770Z,15.54
2017-05-17T07:12:54.648Z,15.70
2017-05-17T07:15:24.598Z,13.22
2017-05-17T07:17:54.487Z,12.98
2017-05-17T07:20:52.658Z,11.12
2017-05-17T07:23:22.548Z,12.66
2017-05-17T07:25:54.721Z,14.68
2017-05-17T07:28:25.349Z,13.12
2017-05-17T07:30:56.001Z,15.32
2017-05-17T07:33:25.912Z,13.42
2017-05-17T07:35:55.799Z,15.88
2017-05-17T07:38:26.453Z,12.08
2017-05-17T07:40:56.410Z,12.16
2017-05-17T07:43:53.033Z,11.52
2017-05-17T07:46:22.976Z,12.22
2017-05-17T07:48:52.865Z,11.82
2017-05-17T07:51:52.545Z,11.40
2017-05-17T07:54:22.430Z,9.70
2017-05-17T07:56:52.361Z,9.98
2017-05-17T07:59:22.992Z,9.48
2017-05-17T08:01:53.654Z,10.94
2017-05-17T08:04:23.552Z,8.46
2017-05-17T08:06:53.469Z,9.64
2017-05-17T08:09:53.672Z,9.52
2017-05-17T08:12:24.347Z,9.20
2017-05-17T08:18:03.120Z,9.48
2017-05-17T08:20:32.999Z,9.06
2017-05-17T08:23:02.926Z,10.06
2017-05-17T08:25:53.270Z,8.58
2017-05-17T08:28:23.962Z,9.90
2017-05-17T08:30:54.217Z,8.96
2017-05-17T08:33:24.887Z,9.52
2017-05-17T08:35:54.759Z,8.30
2017-05-17T08:38:53.100Z,10.14
2017-05-17T08:41:22.991Z,8.36
2017-05-17T08:44:07.842Z,9.88
2017-05-17T08:46:54.050Z,9.06
2017-05-17T08:49:23.975Z,8.62
2017-05-17T08:51:53.849Z,8.56
2017-05-17T08:54:24.516Z,8.10
2017-05-17T08:56:54.422Z,10.04
2017-05-17T08:59:24.465Z,9.04
2017-05-17T09:01:54.361Z,6.82
2017-05-17T09:04:24.239Z,6.72
2017-05-17T09:06:54.921Z,6.98
2017-05-17T09:09:31.601Z,6.06
2017-05-17T09:12:01.528Z,8.26
2017-05-17T09:14:53.203Z,9.06
2017-05-17T09:17:23.151Z,6.94
2017-05-17T09:19:53.053Z,6.72
2017-05-17T09:22:22.938Z,7.38
2017-05-17T09:24:54.399Z,6.34
2017-05-17T09:27:24.298Z,7.34
2017-05-17T09:29:54.980Z,7.04
2017-05-17T09:32:25.711Z,6.84
2017-05-17T09:34:55.623Z,6.22
2017-05-17T09:37:53.166Z,6.82
2017-05-17T09:40:23.258Z,8.56
2017-05-17T09:42:54.852Z,7.76
2017-05-17T09:45:24.782Z,6.64
2017-05-17T09:47:54.660Z,7.00
2017-05-17T09:50:24.550Z,6.54
2017-05-17T09:52:54.493Z,6.62
2017-05-17T09:55:24.374Z,6.94
2017-05-17T09:57:55.026Z,8.40
2017-05-17T10:00:24.929Z,7.70
2017-05-17T10:02:54.843Z,6.18
2017-05-17T10:05:52.751Z,6.58
2017-05-17T10:08:22.691Z,6.64
2017-05-17T10:10:55.829Z,5.66
2017-05-17T10:13:25.767Z,5.52
2017-05-17T10:15:55.641Z,6.30
2017-05-17T10:18:29.169Z,5.06
2017-05-17T10:20:59.046Z,6.10
2017-05-17T10:23:29.712Z,8.64
2017-05-17T10:25:59.578Z,7.38
2017-05-17T10:28:30.222Z,6.62
2017-05-17T10:31:00.115Z,7.06
2017-05-17T10:33:30.084Z,6.94
2017-05-17T10:35:59.996Z,7.44
2017-05-17T10:38:53.965Z,6.44
2017-05-17T10:41:23.902Z,6.04
2017-05-17T10:43:53.791Z,5.62
2017-05-17T10:46:23.704Z,6.18
2017-05-17T10:48:53.588Z,5.70
2017-05-17T10:51:24.250Z,5.74
2017-05-17T10:53:54.175Z,6.06
2017-05-17T10:56:24.098Z,4.94
2017-05-17T10:58:54.018Z,5.48
2017-05-17T11:01:23.977Z,5.10
2017-05-17T11:03:54.599Z,5.60
2017-05-17T11:06:24.534Z,5.38
2017-05-17T11:08:54.401Z,5.32
2017-05-17T11:11:53.902Z,5.30
2017-05-17T11:14:23.778Z,5.80
2017-05-17T11:16:54.820Z,4.70
2017-05-17T11:19:24.696Z,5.12
2017-05-17T11:21:54.626Z,5.30
2017-05-17T11:24:25.244Z,6.08
2017-05-17T11:26:55.161Z,4.76
2017-05-17T11:29:25.051Z,5.08
2017-05-17T11:31:54.984Z,5.80
2017-05-17T11:34:24.864Z,5.54
2017-05-17T11:36:54.812Z,4.82
2017-05-17T11:39:24.691Z,4.96
2017-05-17T11:41:54.605Z,5.34
2017-05-17T11:44:24.495Z,4.08
2017-05-17T11:46:54.421Z,4.00
2017-05-17T11:49:24.354Z,5.18
2017-05-17T11:51:54.250Z,4.32
2017-05-17T11:54:24.172Z,4.74
2017-05-17T11:56:54.072Z,5.54
2017-05-17T11:59:31.021Z,5.16
2017-05-17T12:05:10.715Z,4.36
2017-05-17T12:07:53.396Z,4.84
2017-05-17T12:10:54.382Z,4.68
2017-05-17T12:13:54.157Z,4.36
2017-05-17T12:16:24.051Z,4.78
2017-05-17T12:18:54.728Z,4.20
2017-05-17T12:21:52.904Z,4.90
2017-05-17T12:24:52.849Z,4.42
2017-05-17T12:30:17.822Z,5.02
2017-05-17T12:32:54.536Z,6.22
2017-05-17T12:35:24.477Z,4.76
2017-05-17T12:37:54.366Z,4.60
2017-05-17T12:40:24.282Z,4.98
2017-05-17T12:42:54.170Z,3.58
2017-05-17T12:45:24.104Z,4.12
2017-05-17T12:47:54.700Z,4.02
2017-05-17T12:50:24.611Z,4.00
2017-05-17T12:52:54.524Z,4.72
2017-05-17T12:55:52.897Z,4.10
2017-05-17T12:58:52.854Z,4.74
2017-05-17T13:01:52.659Z,4.30
2017-05-17T13:04:22.674Z,4.18
2017-05-17T13:07:02.360Z,4.84
2017-05-17T13:09:32.280Z,4.76
2017-05-17T13:12:02.156Z,3.94
2017-05-17T13:14:32.069Z,3.64
2017-05-17T13:17:01.950Z,4.46
2017-05-17T13:19:31.814Z,4.12
2017-05-17T13:22:01.747Z,4.56
2017-05-17T13:24:31.616Z,5.18
2017-05-17T13:27:01.487Z,3.64
2017-05-17T13:29:32.154Z,3.62
2017-05-17T13:32:02.034Z,3.32
2017-05-17T13:34:53.178Z,3.56
2017-05-17T13:37:53.651Z,4.48
2017-05-17T13:40:24.383Z,4.96
2017-05-17T13:42:54.277Z,3.24
2017-05-17T13:45:54.001Z,4.64
2017-05-17T13:48:53.685Z,3.80
2017-05-17T13:51:23.609Z,3.92
2017-05-17T13:53:53.495Z,4.20
2017-05-17T13:56:23.434Z,4.38
2017-05-17T14:01:44.344Z,4.40
2017-05-17T14:04:14.236Z,4.20
2017-05-17T14:06:44.561Z,4.36
2017-05-17T14:09:14.448Z,4.56
2017-05-17T14:11:46.032Z,4.18
2017-05-17T14:14:15.943Z,3.76
2017-05-17T14:16:45.878Z,4.36
2017-05-17T14:22:21.075Z,4.06
2017-05-17T14:24:50.949Z,3.64
2017-05-17T14:30:23.031Z,3.48
2017-05-17T14:32:55.839Z,3.18
2017-05-17T14:35:25.762Z,4.06
2017-05-17T14:37:55.663Z,3.34
2017-05-17T14:40:25.543Z,3.56
2017-05-17T14:42:55.445Z,3.56
2017-05-17T14:45:25.337Z,3.14
2017-05-17T14:47:55.990Z,4.18
2017-05-17T14:50:38.489Z,3.36
2017-05-17T14:53:08.417Z,3.64
2017-05-17T14:55:55.286Z,4.04
2017-05-17T14:58:53.210Z,3.06
2017-05-17T15:01:23.095Z,3.62
2017-05-17T15:03:53.761Z,3.46
2017-05-17T15:06:53.581Z,3.74
2017-05-17T15:09:53.378Z,2.90
2017-05-17T15:12:23.311Z,3.10
2017-05-17T15:14:55.045Z,3.58
2017-05-17T15:17:24.945Z,2.64
2017-05-17T15:19:54.836Z,3.92
2017-05-17T15:22:24.753Z,3.56
2017-05-17T15:24:54.645Z,3.84
2017-05-17T15:27:53.380Z,3.20
2017-05-17T15:30:23.268Z,3.00
2017-05-17T15:32:53.207Z,3.04
2017-05-17T15:35:23.098Z,3.14
2017-05-17T15:37:54.753Z,2.68
2017-05-17T15:40:53.085Z,3.28
2017-05-17T15:43:22.998Z,2.96
2017-05-17T15:45:56.063Z,3.46
2017-05-17T15:48:25.952Z,3.46
2017-05-17T15:50:56.641Z,3.56
2017-05-17T15:53:26.528Z,2.80
2017-05-17T15:55:56.454Z,3.78
2017-05-17T15:58:52.684Z,3.22
2017-05-17T16:07:39.477Z,2.92
2017-05-17T16:10:19.329Z,3.40
2017-05-17T16:13:04.176Z,3.54
2017-05-17T16:15:53.869Z,3.78
2017-05-17T16:24:39.545Z,4.12
2017-05-17T16:27:09.617Z,3.40
2017-05-17T16:29:53.658Z,4.82
2017-05-17T16:32:23.593Z,4.80
2017-05-17T16:34:54.792Z,4.26
2017-05-17T16:37:24.694Z,4.54
2017-05-17T16:39:54.664Z,4.40
2017-05-17T16:42:25.269Z,4.22
2017-05-17T16:44:55.245Z,4.26
2017-05-17T16:47:25.146Z,4.42
2017-05-17T16:49:55.076Z,3.62
2017-05-17T16:52:24.959Z,4.64
2017-05-17T16:54:54.890Z,4.50
2017-05-17T16:57:24.768Z,4.50
2017-05-17T16:59:55.418Z,5.02
2017-05-17T17:02:53.426Z,3.82
2017-05-17T17:05:23.445Z,4.42
2017-05-17T17:07:54.979Z,5.56
2017-05-17T17:10:25.016Z,5.06
2017-05-17T17:12:54.972Z,5.54
2017-05-17T17:15:25.601Z,4.02
2017-05-17T17:17:56.273Z,5.14
2017-05-17T17:20:26.157Z,5.10
2017-05-17T17:22:56.834Z,5.74
2017-05-17T17:25:26.719Z,7.18
2017-05-17T17:27:56.731Z,8.64
2017-05-17T17:30:43.950Z,7.38
2017-05-17T17:33:13.886Z,6.04
2017-05-17T17:35:53.688Z,7.46
2017-05-17T17:41:08.921Z,5.34
2017-05-17T17:43:38.833Z,5.46
2017-05-17T17:46:08.775Z,6.14
2017-05-17T17:48:38.665Z,7.62
2017-05-17T17:51:08.566Z,6.70
2017-05-17T17:53:38.479Z,7.58
2017-05-17T17:56:08.406Z,6.38
2017-05-17T17:58:55.449Z,8.30
2017-05-17T18:01:25.368Z,7.20
2017-05-17T18:03:55.304Z,5.20
2017-05-17T18:06:25.930Z,7.58
2017-05-17T18:08:55.854Z,7.48
2017-05-17T18:11:26.478Z,5.88
2017-05-17T18:13:59.212Z,6.90
2017-05-17T18:16:29.100Z,8.38
2017-05-17T18:18:59.359Z,8.58
2017-05-17T18:21:55.357Z,6.86
2017-05-17T18:24:25.297Z,8.00
2017-05-17T18:26:55.178Z,7.58
2017-05-17T18:29:25.118Z,7.72
2017-05-17T18:31:55.451Z,7.38
2017-05-17T18:34:25.377Z,7.88
2017-05-17T18:36:55.259Z,7.34
2017-05-17T18:39:25.166Z,7.74
2017-05-17T18:41:55.045Z,7.42
2017-05-17T18:44:25.706Z,7.76
2017-05-17T18:46:55.588Z,8.22
2017-05-17T18:49:26.285Z,7.98
2017-05-17T18:51:56.176Z,8.36
2017-05-17T18:54:53.253Z,7.68
2017-05-17T18:57:23.135Z,7.88
2017-05-17T18:59:53.051Z,8.46
2017-05-17T19:02:22.926Z,8.56
2017-05-17T19:04:53.612Z,8.06
2017-05-17T19:07:23.499Z,8.90
2017-05-17T19:09:53.385Z,7.42
2017-05-17T19:12:24.040Z,7.88
2017-05-17T19:14:53.925Z,8.40
2017-05-17T19:17:24.609Z,8.38
2017-05-17T19:19:54.491Z,8.12
2017-05-17T19:22:54.857Z,6.84
2017-05-17T19:25:25.663Z,6.56
2017-05-17T19:27:55.590Z,7.50
2017-05-17T19:30:53.296Z,7.22
2017-05-17T19:33:53.207Z,9.46
2017-05-17T19:36:53.137Z,9.28
2017-05-17T19:39:23.092Z,9.28
2017-05-17T19:41:52.996Z,7.80
2017-05-17T19:47:24.564Z,6.70
2017-05-17T19:49:54.471Z,7.64
2017-05-17T19:52:25.144Z,6.10
2017-05-17T19:54:55.067Z,7.04
2017-05-17T19:57:53.201Z,7.26
2017-05-17T20:00:23.152Z,7.88
2017-05-17T20:02:53.056Z,5.98
2017-05-17T20:05:22.995Z,7.32
2017-05-17T20:07:52.892Z,8.88
2017-05-17T20:10:22.798Z,8.32
2017-05-17T20:12:55.737Z,8.60
2017-05-17T20:15:26.394Z,7.40
2017-05-17T20:17:56.316Z,9.68
2017-05-17T20:20:26.246Z,7.12
2017-05-17T20:22:56.116Z,6.48
2017-05-17T20:25:26.784Z,9.48
2017-05-17T20:27:56.668Z,9.88
2017-05-17T20:30:27.341Z,8.70
2017-05-17T20:32:57.220Z,8.46
2017-05-17T20:35:27.171Z,9.52
2017-05-17T20:37:57.052Z,6.84
2017-05-17T20:40:26.973Z,8.66
2017-05-17T20:42:56.853Z,10.46
2017-05-17T20:45:27.517Z,11.86
2017-05-17T20:47:57.407Z,12.28
2017-05-17T20:50:28.100Z,11.66
2017-05-17T20:56:06.809Z,11.86
2017-05-17T21:01:44.582Z,10.60
2017-05-17T21:04:15.254Z,11.76
2017-05-17T21:06:45.139Z,13.70
2017-05-17T21:11:55.041Z,13.90
2017-05-17T21:14:24.939Z,13.58
2017-05-17T21:16:54.898Z,13.26
2017-05-17T21:19:24.783Z,12.08
2017-05-17T21:21:54.713Z,11.86
2017-05-17T21:24:24.598Z,15.78
2017-05-17T21:26:54.527Z,12.76
2017-05-17T21:29:24.424Z,14.72
2017-05-17T21:31:54.354Z,15.20
2017-05-17T21:34:24.237Z,16.18
2017-05-17T21:36:55.121Z,11.14
2017-05-17T21:39:25.012Z,13.60
2017-05-17T21:41:54.941Z,12.74
2017-05-17T21:44:24.826Z,15.50
2017-05-17T21:46:54.776Z,14.72
2017-05-17T21:52:43.153Z,9.66
2017-05-17T21:55:13.040Z,9.44
2017-05-17T21:57:42.958Z,8.60
2017-05-17T22:00:12.859Z,8.62
2017-05-17T22:02:42.818Z,12.70
2017-05-17T22:05:12.690Z,12.58
2017-05-17T22:07:42.638Z,9.30
2017-05-17T22:10:12.556Z,10.48
2017-05-17T22:12:42.506Z,11.86
2017-05-17T22:15:12.390Z,9.70
2017-05-17T22:17:42.310Z,13.68
2017-05-17T22:20:12.978Z,8.88
2017-05-17T22:22:42.863Z,15.40
2017-05-17T22:25:13.543Z,17.54
2017-05-17T22:27:43.445Z,19.16
2017-05-17T22:30:13.383Z,30.58
2017-05-17T22:32:56.340Z,21.12
2017-05-17T22:35:53.282Z,10.34
2017-05-17T22:38:23.178Z,10.12
2017-05-17T22:40:53.149Z,11.90
2017-05-17T22:43:23.251Z,12.40
2017-05-17T22:45:54.983Z,14.78
2017-05-17T22:48:24.884Z,10.24
2017-05-17T22:50:55.448Z,10.90
2017-05-17T22:53:26.079Z,9.64
2017-05-17T23:02:12.688Z,8.50
2017-05-17T23:04:54.946Z,14.02
2017-05-17T23:07:24.874Z,9.84
2017-05-17T23:09:54.777Z,10.82
2017-05-17T23:12:24.707Z,9.26
2017-05-17T23:14:55.554Z,9.58
2017-05-17T23:17:25.433Z,9.80
2017-05-17T23:19:55.355Z,11.18
2017-05-17T23:22:53.844Z,9.44
2017-05-17T23:25:23.753Z,14.00
2017-05-17T23:27:53.682Z,12.40
2017-05-17T23:30:23.559Z,12.42
2017-05-17T23:32:55.839Z,10.16
2017-05-17T23:35:53.197Z,10.30
2017-05-17T23:38:23.124Z,10.26
2017-05-17T23:40:56.240Z,14.04
2017-05-17T23:43:26.155Z,12.04
2017-05-17T23:45:56.088Z,11.52
2017-05-17T23:48:54.117Z,13.06
2017-05-17T23:51:24.053Z,15.36
2017-05-17T23:53:53.955Z,15.82
2017-05-17T23:56:53.675Z,16.32
2017-05-17T23:59:23.574Z,16.78
